Time;durP1;ratioP1;P1;durP2;ratioP2;P2;SDS_P1;SDS_P2;PMS_P1;PMS_P2;Temp;Humidity;BMP_temperature;BMP_pressure;BME280_temperature;BME280_humidity;BME280_pressure;Samples;Min_cycle;Max_cycle;Signal;HPM_P1;HPM_P2
2023/10/12 00:00:27;;;;;;;;;;;18.80;70.30;;;;;;5027265;28;21150;-73
2023/10/12 00:02:57;;;;;;;;;;;18.90;70.30;;;;;;5026946;28;20441;-73
2023/10/12 00:05:27;;;;;;;;;;;18.80;70.30;;;;;;5031393;28;19984;-73
2023/10/12 00:07:56;;;;;;;;;;;18.80;70.40;;;;;;5027096;28;20536;-73
2023/10/12 00:10:23;;;;;;;;;;;18.80;70.40;;;;;;5025309;28;20023;-73
2023/10/12 00:12:53;;;;;;;;;;;18.80;70.60;;;;;;5025643;28;20062;-73
2023/10/12 00:15:24;;;;;;;;;;;18.80;71.10;;;;;;5024075;28;19999;-73
2023/10/12 00:17:51;;;;;;;;;;;18.80;70.70;;;;;;5025498;28;19980;-74
2023/10/12 00:20:32;;;;;;;;;;;18.80;70.60;;;;;;5025679;28;20023;-74
2023/10/12 00:22:59;;;;;;;;;;;18.80;70.70;;;;;;5024768;28;19976;-73
2023/10/12 00:25:26;;;;;;;;;;;18.70;70.50;;;;;;5029721;28;20007;-72
2023/10/12 00:27:52;;;;;;;;;;;18.70;70.50;;;;;;5030673;28;19980;-74
2023/10/12 00:30:20;;;;;;;;;;;18.70;70.60;;;;;;5020565;28;19976;-73
2023/10/12 00:32:47;;;;;;;;;;;18.70;70.60;;;;;;5032823;28;19983;-73
2023/10/12 00:35:14;;;;;;;;;;;18.70;71.40;;;;;;5026376;28;20079;-73
2023/10/12 00:37:43;;;;;;;;;;;18.70;70.60;;;;;;5026938;28;20075;-73
2023/10/12 00:40:25;;;;;;;;;;;18.70;70.70;;;;;;5020611;28;19976;-73
2023/10/12 00:42:52;;;;;;;;;;;18.70;70.70;;;;;;5030942;28;20301;-73
2023/10/12 00:45:27;;;;;;;;;;;18.70;70.70;;;;;;5024778;28;19992;-73
2023/10/12 00:47:56;;;;;;;;;;;18.60;70.60;;;;;;5026897;28;20430;-73
2023/10/12 00:50:27;;;;;;;;;;;18.60;70.60;;;;;;5025489;28;19979;-73
2023/10/12 00:52:55;;;;;;;;;;;18.60;70.70;;;;;;5026504;28;20061;-74
2023/10/12 00:55:34;;;;;;;;;;;18.60;70.70;;;;;;5022823;28;19983;-73
2023/10/12 00:58:03;;;;;;;;;;;18.60;70.70;;;;;;5026519;28;19984;-73
2023/10/12 01:00:35;;;;;;;;;;;18.60;70.70;;;;;;5021723;28;20042;-74
2023/10/12 01:03:30;;;;;;;;;;;18.60;70.80;;;;;;5024526;28;19980;-73
2023/10/12 01:08:43;;;;;;;;;;;18.60;70.90;;;;;;5024722;28;20488;-73
2023/10/12 01:11:17;;;;;;;;;;;18.50;70.80;;;;;;5023777;28;20046;-74
2023/10/12 01:13:44;;;;;;;;;;;18.60;71.00;;;;;;5024406;28;19995;-73
2023/10/12 01:16:20;;;;;;;;;;;18.60;71.00;;;;;;5021904;28;19992;-73
2023/10/12 01:18:51;;;;;;;;;;;18.50;71.00;;;;;;5022422;28;20463;-74
2023/10/12 01:21:17;;;;;;;;;;;18.50;71.10;;;;;;5022908;28;19995;-73
2023/10/12 01:23:50;;;;;;;;;;;18.50;71.20;;;;;;5023862;28;20003;-74
2023/10/12 01:26:18;;;;;;;;;;;18.50;71.90;;;;;;5023712;28;19976;-74
2023/10/12 01:28:49;;;;;;;;;;;18.50;71.10;;;;;;5023282;28;19980;-73
2023/10/12 01:31:23;;;;;;;;;;;18.50;71.20;;;;;;5024697;28;20046;-73
2023/10/12 01:33:54;;;;;;;;;;;18.50;71.20;;;;;;5029586;28;20093;-73
2023/10/12 01:36:21;;;;;;;;;;;18.50;71.20;;;;;;5025746;28;20011;-73
2023/10/12 01:38:49;;;;;;;;;;;18.50;71.30;;;;;;5027442;28;20393;-73
2023/10/12 01:41:25;;;;;;;;;;;18.40;71.30;;;;;;5024228;28;19976;-73
2023/10/12 01:43:52;;;;;;;;;;;18.40;71.30;;;;;;5026851;28;20002;-73
2023/10/12 01:46:21;;;;;;;;;;;18.40;71.50;;;;;;5021703;28;19999;-74
2023/10/12 01:48:49;;;;;;;;;;;18.40;71.50;;;;;;5026039;28;19980;-74
2023/10/12 01:51:24;;;;;;;;;;;18.40;71.50;;;;;;5029600;28;19984;-73
2023/10/12 01:53:52;;;;;;;;;;;18.40;71.50;;;;;;5024611;28;20477;-74
2023/10/12 01:56:18;;;;;;;;;;;18.40;71.60;;;;;;5024866;28;20588;-73
2023/10/12 01:58:48;;;;;;;;;;;18.40;71.60;;;;;;5025956;28;19980;-73
2023/10/12 02:01:18;;;;;;;;;;;18.30;71.60;;;;;;5022337;28;20618;-73
2023/10/12 02:03:45;;;;;;;;;;;18.40;71.80;;;;;;5022760;28;20123;-74
2023/10/12 02:06:16;;;;;;;;;;;18.40;71.90;;;;;;5025678;28;19990;-73
2023/10/12 02:08:46;;;;;;;;;;;18.30;72.00;;;;;;5021268;28;20546;-73
2023/10/12 02:11:26;;;;;;;;;;;18.30;71.80;;;;;;5024907;28;20023;-73
2023/10/12 02:13:54;;;;;;;;;;;18.30;71.90;;;;;;5025451;28;20002;-73
2023/10/12 02:16:24;;;;;;;;;;;18.30;72.00;;;;;;5023661;28;19999;-73
2023/10/12 02:18:50;;;;;;;;;;;18.30;71.90;;;;;;5031826;28;19984;-73
2023/10/12 02:21:20;;;;;;;;;;;18.30;71.90;;;;;;5022709;28;19980;-73
2023/10/12 02:24:09;;;;;;;;;;;18.30;72.00;;;;;;5024706;28;20002;-74
2023/10/12 02:26:38;;;;;;;;;;;18.30;72.10;;;;;;5025841;28;19976;-74
2023/10/12 02:29:12;;;;;;;;;;;18.20;72.10;;;;;;5020955;28;19980;-73
2023/10/12 02:31:46;;;;;;;;;;;18.30;72.10;;;;;;5021944;28;20003;-74
2023/10/12 02:34:16;;;;;;;;;;;18.20;72.10;;;;;;5022615;28;20002;-73
2023/10/12 02:36:46;;;;;;;;;;;18.20;72.20;;;;;;5021551;28;20696;-74
2023/10/12 02:39:20;;;;;;;;;;;18.20;72.20;;;;;;5023276;28;19980;-73
2023/10/12 02:41:53;;;;;;;;;;;18.20;72.30;;;;;;5026047;28;19976;-73
2023/10/12 02:44:19;;;;;;;;;;;18.20;72.30;;;;;;5023007;28;19996;-74
2023/10/12 02:47:00;;;;;;;;;;;18.20;72.30;;;;;;5025971;28;20082;-73
2023/10/12 02:49:28;;;;;;;;;;;18.20;72.40;;;;;;5021301;28;19980;-73
2023/10/12 02:51:55;;;;;;;;;;;18.20;72.40;;;;;;5023598;28;20030;-74
2023/10/12 02:54:26;;;;;;;;;;;18.20;72.50;;;;;;5021703;28;19992;-74
2023/10/12 02:56:56;;;;;;;;;;;18.10;72.50;;;;;;5023345;28;19996;-74
2023/10/12 02:59:25;;;;;;;;;;;18.10;72.50;;;;;;5017963;28;21136;-74
2023/10/12 03:02:11;;;;;;;;;;;18.10;72.50;;;;;;5021428;28;20007;-74
2023/10/12 03:04:40;;;;;;;;;;;18.10;72.60;;;;;;5023042;28;20480;-73
2023/10/12 03:07:13;;;;;;;;;;;18.10;72.60;;;;;;5021947;28;20380;-73
2023/10/12 03:09:43;;;;;;;;;;;18.10;72.60;;;;;;5024747;28;19976;-73
2023/10/12 03:12:11;;;;;;;;;;;18.10;72.70;;;;;;5021744;28;20019;-73
2023/10/12 03:14:41;;;;;;;;;;;18.10;72.70;;;;;;5019992;28;19996;-73
2023/10/12 03:17:09;;;;;;;;;;;18.10;72.70;;;;;;5021072;28;20004;-74
2023/10/12 03:19:37;;;;;;;;;;;18.10;72.70;;;;;;5024485;28;20524;-75
2023/10/12 03:22:18;;;;;;;;;;;18.10;72.70;;;;;;5019461;28;19989;-73
2023/10/12 03:24:45;;;;;;;;;;;18.10;72.80;;;;;;5023633;28;20105;-73
2023/10/12 03:27:14;;;;;;;;;;;18.00;72.70;;;;;;5023087;28;20484;-74
2023/10/12 03:29:51;;;;;;;;;;;18.10;73.50;;;;;;5026581;28;20121;-73
2023/10/12 03:32:22;;;;;;;;;;;18.00;72.80;;;;;;5025450;28;19992;-74
2023/10/12 03:34:56;;;;;;;;;;;18.00;72.70;;;;;;5025661;28;20038;-73
2023/10/12 03:40:28;;;;;;;;;;;18.10;72.90;;;;;;5023386;28;21945;-73
2023/10/12 03:42:54;;;;;;;;;;;18.00;72.80;;;;;;5030054;28;19975;-74
2023/10/12 03:45:27;;;;;;;;;;;18.00;72.90;;;;;;5022303;28;20066;-73
2023/10/12 03:48:12;;;;;;;;;;;18.00;72.90;;;;;;5025482;28;19976;-74
2023/10/12 03:50:57;;;;;;;;;;;18.00;73.00;;;;;;5026431;28;20368;-73
2023/10/12 03:53:26;;;;;;;;;;;18.00;73.10;;;;;;5024453;28;20000;-73
2023/10/12 03:55:57;;;;;;;;;;;18.00;73.20;;;;;;5024584;28;19995;-73
2023/10/12 03:58:24;;;;;;;;;;;18.00;73.20;;;;;;5023837;28;20462;-74
2023/10/12 04:01:06;;;;;;;;;;;18.00;73.30;;;;;;5023339;28;20799;-73
2023/10/12 04:03:36;;;;;;;;;;;18.00;73.50;;;;;;5026593;28;20086;-74
2023/10/12 04:06:14;;;;;;;;;;;18.00;73.60;;;;;;5025981;28;19996;-73
2023/10/12 04:08:46;;;;;;;;;;;18.00;73.70;;;;;;5025987;28;20352;-73
2023/10/12 04:14:20;;;;;;;;;;;18.00;73.80;;;;;;5022000;28;19999;-73
2023/10/12 04:16:47;;;;;;;;;;;17.90;73.70;;;;;;5024679;28;19992;-73
2023/10/12 04:19:29;;;;;;;;;;;18.00;74.10;;;;;;5020355;28;19976;-74
2023/10/12 04:22:15;;;;;;;;;;;17.90;74.10;;;;;;5022584;28;19976;-73
2023/10/12 04:24:46;;;;;;;;;;;17.90;74.40;;;;;;5019336;28;20000;-74
2023/10/12 04:27:38;;;;;;;;;;;17.90;74.30;;;;;;5020284;28;20453;-73
2023/10/12 04:30:18;;;;;;;;;;;17.90;74.70;;;;;;5020844;28;20563;-74
2023/10/12 04:32:57;;;;;;;;;;;17.80;74.50;;;;;;5020972;28;19995;-73
2023/10/12 04:35:27;;;;;;;;;;;17.90;74.70;;;;;;5021744;28;19994;-74
2023/10/12 04:37:56;;;;;;;;;;;17.80;74.70;;;;;;5023858;28;19976;-73
2023/10/12 04:40:36;;;;;;;;;;;17.80;74.70;;;;;;5016356;28;19984;-74
2023/10/12 04:43:06;;;;;;;;;;;17.80;74.80;;;;;;5021586;28;20021;-74
2023/10/12 04:46:05;;;;;;;;;;;17.80;74.90;;;;;;5023471;28;20087;-73
2023/10/12 04:48:32;;;;;;;;;;;17.80;75.00;;;;;;5024210;28;20111;-74
2023/10/12 04:50:59;;;;;;;;;;;17.80;75.00;;;;;;5023694;28;20007;-74
2023/10/12 04:53:35;;;;;;;;;;;17.70;75.10;;;;;;5022638;28;20003;-74
2023/10/12 04:56:09;;;;;;;;;;;17.70;75.20;;;;;;5022474;28;20018;-73
2023/10/12 04:58:36;;;;;;;;;;;17.70;75.20;;;;;;5022655;28;20433;-73
2023/10/12 05:01:18;;;;;;;;;;;17.70;75.30;;;;;;5023523;28;20122;-74
2023/10/12 05:04:05;;;;;;;;;;;17.70;75.40;;;;;;5021784;28;19998;-74
2023/10/12 05:06:31;;;;;;;;;;;17.70;75.40;;;;;;5024405;28;19992;-74
2023/10/12 05:08:58;;;;;;;;;;;17.70;75.60;;;;;;5022453;28;20342;-74
2023/10/12 05:11:27;;;;;;;;;;;17.60;75.50;;;;;;5024797;28;20798;-74
2023/10/12 05:13:54;;;;;;;;;;;17.60;75.60;;;;;;5023707;28;20034;-74
2023/10/12 05:16:26;;;;;;;;;;;17.60;75.80;;;;;;5023474;28;20091;-74
2023/10/12 05:18:53;;;;;;;;;;;17.60;75.80;;;;;;5023614;28;20063;-74
2023/10/12 05:21:19;;;;;;;;;;;17.50;75.90;;;;;;5020218;28;20000;-74
2023/10/12 05:23:46;;;;;;;;;;;17.50;75.90;;;;;;5019753;28;20140;-74
2023/10/12 05:26:14;;;;;;;;;;;17.50;76.00;;;;;;5022838;28;20119;-74
2023/10/12 05:28:58;;;;;;;;;;;17.50;76.00;;;;;;5021052;28;19980;-74
2023/10/12 05:31:28;;;;;;;;;;;17.60;76.20;;;;;;5023535;28;19996;-73
2023/10/12 05:36:42;;;;;;;;;;;17.50;76.20;;;;;;5025453;28;20107;-74
2023/10/12 05:39:14;;;;;;;;;;;17.50;76.40;;;;;;5021297;28;19983;-74
2023/10/12 05:41:41;;;;;;;;;;;17.50;76.40;;;;;;5025502;28;19976;-67
2023/10/12 05:44:13;;;;;;;;;;;17.50;76.50;;;;;;5027732;28;20003;-67
2023/10/12 05:46:44;;;;;;;;;;;17.40;76.40;;;;;;5026163;28;20004;-67
2023/10/12 05:49:13;;;;;;;;;;;17.40;76.60;;;;;;5027318;28;19976;-67
2023/10/12 05:51:43;;;;;;;;;;;17.40;76.70;;;;;;5027599;28;19986;-67
2023/10/12 05:54:14;;;;;;;;;;;17.40;76.80;;;;;;5024201;28;20054;-67
2023/10/12 05:56:44;;;;;;;;;;;17.40;77.00;;;;;;5029778;28;19980;-67
2023/10/12 05:59:12;;;;;;;;;;;17.40;76.90;;;;;;5026047;28;19976;-67
2023/10/12 06:01:39;;;;;;;;;;;17.40;77.00;;;;;;5022642;28;19999;-67
2023/10/12 06:04:07;;;;;;;;;;;17.40;77.10;;;;;;5026350;28;19996;-67
2023/10/12 06:06:35;;;;;;;;;;;17.30;77.10;;;;;;5024716;28;19996;-67
2023/10/12 06:09:01;;;;;;;;;;;17.30;77.20;;;;;;5025102;28;19972;-67
2023/10/12 06:11:29;;;;;;;;;;;17.30;77.30;;;;;;5020272;28;20045;-67
2023/10/12 06:13:59;;;;;;;;;;;17.30;77.30;;;;;;5026694;28;20457;-67
2023/10/12 06:16:28;;;;;;;;;;;17.30;77.30;;;;;;5021259;28;19998;-67
2023/10/12 06:18:55;;;;;;;;;;;17.30;77.30;;;;;;5023367;28;20004;-67
2023/10/12 06:21:24;;;;;;;;;;;17.30;77.40;;;;;;5024865;28;20565;-67
2023/10/12 06:23:50;;;;;;;;;;;17.30;77.50;;;;;;5022325;28;20369;-66
2023/10/12 06:26:28;;;;;;;;;;;17.30;77.60;;;;;;5025172;28;19992;-67
2023/10/12 06:28:55;;;;;;;;;;;17.30;77.60;;;;;;5021887;28;20077;-67
2023/10/12 06:31:22;;;;;;;;;;;17.30;77.70;;;;;;5016888;28;20008;-67
2023/10/12 06:33:49;;;;;;;;;;;17.30;77.70;;;;;;5021374;28;19996;-67
2023/10/12 06:36:22;;;;;;;;;;;17.20;77.70;;;;;;5023673;28;20038;-67
2023/10/12 06:39:27;;;;;;;;;;;17.30;77.80;;;;;;5023006;28;19986;-67
2023/10/12 06:42:09;;;;;;;;;;;17.20;77.80;;;;;;5021568;28;19988;-67
2023/10/12 06:44:34;;;;;;;;;;;17.20;77.80;;;;;;5022236;28;19992;-67
2023/10/12 06:47:23;;;;;;;;;;;17.20;77.90;;;;;;5023264;28;20010;-75
2023/10/12 06:49:47;;;;;;;;;;;17.30;78.10;;;;;;5019568;28;19986;-75
2023/10/12 06:52:14;;;;;;;;;;;17.20;78.10;;;;;;5022164;28;20442;-76
2023/10/12 06:54:49;;;;;;;;;;;17.20;78.20;;;;;;5024144;28;20000;-74
2023/10/12 06:57:36;;;;;;;;;;;17.20;78.20;;;;;;5023305;28;19979;-75
2023/10/12 07:02:45;;;;;;;;;;;17.20;78.30;;;;;;5019670;28;19992;-75
2023/10/12 07:05:19;;;;;;;;;;;17.30;78.40;;;;;;5022067;28;20031;-75
2023/10/12 07:07:51;;;;;;;;;;;17.20;78.50;;;;;;5021701;28;20592;-75
2023/10/12 07:10:27;;;;;;;;;;;17.20;78.50;;;;;;5025010;28;20063;-75
2023/10/12 07:12:59;;;;;;;;;;;17.20;78.70;;;;;;5027007;28;20433;-75
2023/10/12 07:15:31;;;;;;;;;;;17.20;78.70;;;;;;5023791;28;20005;-75
2023/10/12 07:17:58;;;;;;;;;;;17.20;78.80;;;;;;5025197;28;20075;-75
2023/10/12 07:20:40;;;;;;;;;;;17.20;78.80;;;;;;5022470;28;19987;-74
2023/10/12 07:23:14;;;;;;;;;;;17.20;78.70;;;;;;5018201;28;19987;-75
2023/10/12 07:25:43;;;;;;;;;;;17.20;79.50;;;;;;5023600;28;20001;-75
2023/10/12 07:28:16;;;;;;;;;;;17.20;78.70;;;;;;5020984;28;20066;-75
2023/10/12 07:30:43;;;;;;;;;;;17.30;79.00;;;;;;5018680;28;20386;-74
2023/10/12 07:33:09;;;;;;;;;;;17.30;79.20;;;;;;5022663;28;20066;-75
2023/10/12 07:35:38;;;;;;;;;;;17.30;79.20;;;;;;5021358;28;20584;-74
2023/10/12 07:38:12;;;;;;;;;;;17.30;79.20;;;;;;5018269;28;20066;-74
2023/10/12 07:40:48;;;;;;;;;;;17.30;79.20;;;;;;5019589;28;19982;-74
2023/10/12 07:43:18;;;;;;;;;;;17.30;79.40;;;;;;5023631;28;19986;-75
2023/10/12 07:45:48;;;;;;;;;;;17.30;79.40;;;;;;5019981;28;20532;-74
2023/10/12 07:48:29;;;;;;;;;;;17.30;79.60;;;;;;5023765;28;20416;-75
2023/10/12 07:50:56;;;;;;;;;;;17.30;79.60;;;;;;5017326;28;20047;-75
2023/10/12 07:53:23;;;;;;;;;;;17.30;79.70;;;;;;5019870;28;20500;-75
2023/10/12 07:55:56;;;;;;;;;;;17.30;79.60;;;;;;5026362;28;20130;-75
2023/10/12 07:58:24;;;;;;;;;;;17.30;79.60;;;;;;5022164;28;20038;-75
2023/10/12 08:01:19;;;;;;;;;;;17.30;79.60;;;;;;5021349;28;19992;-74
2023/10/12 08:03:41;;;;;;;;;;;17.40;79.60;;;;;;5018929;28;19992;-74
2023/10/12 08:06:08;;;;;;;;;;;17.30;79.50;;;;;;5022302;28;20189;-74
2023/10/12 08:08:34;;;;;;;;;;;17.30;79.40;;;;;;5021798;28;20460;-75
2023/10/12 08:11:08;;;;;;;;;;;17.40;79.30;;;;;;5021599;28;20023;-75
2023/10/12 08:13:48;;;;;;;;;;;17.40;79.30;;;;;;5021870;28;19999;-74
2023/10/12 08:16:15;;;;;;;;;;;17.40;79.20;;;;;;5017501;28;20454;-74
2023/10/12 08:21:38;;;;;;;;;;;17.50;80.60;;;;;;4999168;28;19987;-74
2023/10/12 08:24:09;;;;;;;;;;;17.50;80.10;;;;;;5024848;28;19935;-74
2023/10/12 08:26:47;;;;;;;;;;;17.40;79.80;;;;;;5023454;28;19941;-74
2023/10/12 08:29:57;;;;;;;;;;;17.50;79.70;;;;;;5026649;28;20410;-74
2023/10/12 08:32:12;;;;;;;;;;;17.50;79.60;;;;;;5022702;28;20012;-75
2023/10/12 08:37:26;;;;;;;;;;;17.50;79.40;;;;;;5023244;28;19979;-74
2023/10/12 08:40:07;;;;;;;;;;;17.50;79.30;;;;;;5027948;28;20014;-74
2023/10/12 08:42:55;;;;;;;;;;;17.60;79.30;;;;;;5024112;28;19933;-74
2023/10/12 08:45:26;;;;;;;;;;;17.50;79.10;;;;;;5021046;28;19929;-74
2023/10/12 08:47:54;;;;;;;;;;;17.60;79.10;;;;;;5025152;28;19929;-73
2023/10/12 08:53:13;;;;;;;;;;;17.60;79.00;;;;;;5009775;28;20000;-74
2023/10/12 08:55:41;;;;;;;;;;;17.60;78.90;;;;;;5022194;28;19937;-74
2023/10/12 08:58:15;;;;;;;;;;;17.60;78.80;;;;;;5026939;28;19940;-74
2023/10/12 09:00:44;;;;;;;;;;;17.60;78.70;;;;;;5021083;28;19929;-74
2023/10/12 09:03:24;;;;;;;;;;;17.60;78.60;;;;;;5023167;28;19940;-74
2023/10/12 09:05:52;;;;;;;;;;;17.70;78.50;;;;;;5026519;28;19936;-75
2023/10/12 09:11:26;;;;;;;;;;;17.70;78.40;;;;;;5120595;27;19919;-74
2023/10/12 09:13:57;;;;;;;;;;;17.70;78.30;;;;;;5108315;28;20328;-74
2023/10/12 09:16:26;;;;;;;;;;;17.80;78.30;;;;;;5072263;27;20027;-74
2023/10/12 09:18:57;;;;;;;;;;;17.80;78.30;;;;;;5053203;28;19932;-73
2023/10/12 09:21:38;;;;;;;;;;;17.80;78.30;;;;;;5057428;28;19935;-73
2023/10/12 09:24:15;;;;;;;;;;;18.00;79.40;;;;;;5055667;28;19929;-73
2023/10/12 09:26:49;;;;;;;;;;;18.10;78.70;;;;;;5057558;28;19924;-73
2023/10/12 09:29:23;;;;;;;;;;;18.20;78.20;;;;;;5051335;28;19928;-75
2023/10/12 09:32:12;;;;;;;;;;;18.30;77.90;;;;;;5066742;28;19981;-74
2023/10/12 09:34:46;;;;;;;;;;;18.40;77.60;;;;;;5078283;28;19930;-73
2023/10/12 09:37:16;;;;;;;;;;;18.50;77.40;;;;;;5078320;28;20718;-74
2023/10/12 09:39:42;;;;;;;;;;;18.50;77.10;;;;;;5075201;28;19975;-76
2023/10/12 09:42:14;;;;;;;;;;;18.60;77.00;;;;;;5076032;28;19936;-74
2023/10/12 09:44:41;;;;;;;;;;;18.60;76.80;;;;;;5073167;28;19928;-73
2023/10/12 09:47:15;;;;;;;;;;;18.70;76.80;;;;;;5073932;28;19932;-74
2023/10/12 09:49:47;;;;;;;;;;;18.70;76.60;;;;;;5075880;28;19939;-74
2023/10/12 09:52:16;;;;;;;;;;;18.80;76.60;;;;;;5078609;28;19928;-75
2023/10/12 09:54:46;;;;;;;;;;;18.80;76.40;;;;;;5073446;28;20345;-74
2023/10/12 09:57:23;;;;;;;;;;;18.90;76.40;;;;;;5075288;28;19928;-75
2023/10/12 09:59:53;;;;;;;;;;;18.80;76.30;;;;;;5075784;28;19936;-75
2023/10/12 10:02:28;;;;;;;;;;;18.90;76.20;;;;;;5076674;28;19928;-75
2023/10/12 10:05:01;;;;;;;;;;;19.00;76.10;;;;;;5074119;28;20481;-75
2023/10/12 10:07:32;;;;;;;;;;;19.00;76.00;;;;;;5074493;28;20017;-71
2023/10/12 10:10:01;;;;;;;;;;;19.00;75.90;;;;;;5072239;28;19928;-72
2023/10/12 10:12:31;;;;;;;;;;;19.10;75.80;;;;;;5079386;28;19928;-71
2023/10/12 10:15:00;;;;;;;;;;;19.10;75.80;;;;;;5075594;28;19928;-71
2023/10/12 10:17:35;;;;;;;;;;;19.10;75.60;;;;;;5071736;27;20295;-71
2023/10/12 10:20:45;;;;;;;;;;;19.20;75.40;;;;;;5072631;28;19986;-72
2023/10/12 10:23:13;;;;;;;;;;;19.20;75.20;;;;;;5060441;28;20551;-71
2023/10/12 10:25:46;;;;;;;;;;;19.20;75.00;;;;;;5057974;28;19951;-71
2023/10/12 10:28:18;;;;;;;;;;;19.30;74.90;;;;;;5061019;28;19932;-71
2023/10/12 10:30:49;;;;;;;;;;;19.30;74.80;;;;;;5061623;28;20313;-71
2023/10/12 10:33:22;;;;;;;;;;;19.30;74.70;;;;;;5059740;28;19976;-72
2023/10/12 10:35:59;;;;;;;;;;;19.40;74.60;;;;;;5064579;28;19932;-72
2023/10/12 10:38:32;;;;;;;;;;;19.40;74.50;;;;;;5058975;28;19978;-72
2023/10/12 10:41:07;;;;;;;;;;;19.40;74.40;;;;;;5064376;28;20017;-71
2023/10/12 10:43:37;;;;;;;;;;;19.50;74.20;;;;;;5059424;28;19928;-72
2023/10/12 10:46:06;;;;;;;;;;;19.50;74.10;;;;;;5058281;28;20019;-71
2023/10/12 10:48:33;;;;;;;;;;;19.50;73.90;;;;;;5059284;28;19928;-72
2023/10/12 10:51:02;;;;;;;;;;;19.50;73.90;;;;;;5056146;28;19935;-72
2023/10/12 10:53:31;;;;;;;;;;;19.50;73.80;;;;;;5058961;28;20445;-71
2023/10/12 10:56:00;;;;;;;;;;;19.50;73.70;;;;;;5059939;28;19928;-71
2023/10/12 10:58:26;;;;;;;;;;;19.60;73.60;;;;;;5059308;28;20035;-72
2023/10/12 11:00:57;;;;;;;;;;;19.60;73.50;;;;;;5058243;28;20262;-72
2023/10/12 11:03:26;;;;;;;;;;;19.60;73.50;;;;;;5058439;28;19928;-72
2023/10/12 11:05:53;;;;;;;;;;;19.60;73.50;;;;;;5054505;28;19938;-71
2023/10/12 11:08:26;;;;;;;;;;;19.70;73.60;;;;;;5061011;28;19935;-72
2023/10/12 11:13:35;;;;;;;;;;;19.70;73.20;;;;;;5060036;28;19924;-72
2023/10/12 11:16:20;;;;;;;;;;;19.70;72.90;;;;;;5060157;28;19928;-71
2023/10/12 11:18:47;;;;;;;;;;;19.70;72.60;;;;;;5062103;28;19928;-72
2023/10/12 11:21:14;;;;;;;;;;;19.70;72.70;;;;;;5064202;28;19928;-72
2023/10/12 11:23:44;;;;;;;;;;;19.80;72.90;;;;;;5063394;28;19935;-72
2023/10/12 11:26:17;;;;;;;;;;;19.80;72.70;;;;;;5060382;28;20027;-71
2023/10/12 11:28:44;;;;;;;;;;;19.80;72.40;;;;;;5060341;28;19929;-72
2023/10/12 11:31:20;;;;;;;;;;;19.90;72.50;;;;;;5062753;28;20389;-71
2023/10/12 11:33:50;;;;;;;;;;;19.80;72.30;;;;;;5059924;28;19982;-71
2023/10/12 11:36:22;;;;;;;;;;;19.90;72.30;;;;;;5058394;28;19975;-72
2023/10/12 11:38:57;;;;;;;;;;;19.80;72.10;;;;;;5059905;28;19932;-72
2023/10/12 11:41:25;;;;;;;;;;;19.90;72.20;;;;;;5060002;28;19943;-72
2023/10/12 11:43:52;;;;;;;;;;;20.00;72.10;;;;;;5059772;28;19935;-72
2023/10/12 11:46:21;;;;;;;;;;;19.90;72.00;;;;;;5061175;28;19929;-71
2023/10/12 11:49:00;;;;;;;;;;;20.00;72.00;;;;;;5057470;28;19933;-72
2023/10/12 11:51:27;;;;;;;;;;;20.00;71.70;;;;;;5061972;28;19929;-71
2023/10/12 11:53:53;;;;;;;;;;;20.00;71.70;;;;;;5061967;28;19936;-71
2023/10/12 11:56:22;;;;;;;;;;;20.00;71.30;;;;;;5063656;28;19935;-72
2023/10/12 11:58:54;;;;;;;;;;;20.10;71.50;;;;;;5064656;28;19951;-72
2023/10/12 12:01:22;;;;;;;;;;;20.10;71.50;;;;;;5058838;28;19929;-72
2023/10/12 12:03:53;;;;;;;;;;;20.10;71.50;;;;;;5059785;28;19940;-72
2023/10/12 12:06:21;;;;;;;;;;;20.10;71.50;;;;;;5061737;28;20007;-71
2023/10/12 12:08:48;;;;;;;;;;;20.10;71.40;;;;;;5061851;28;19929;-72
2023/10/12 12:11:19;;;;;;;;;;;20.10;71.50;;;;;;5050426;28;19932;-73
2023/10/12 12:13:48;;;;;;;;;;;20.20;71.50;;;;;;5058077;28;20652;-75
2023/10/12 12:16:19;;;;;;;;;;;20.20;71.20;;;;;;5060862;28;20497;-75
2023/10/12 12:18:50;;;;;;;;;;;20.20;71.20;;;;;;5060232;28;19968;-76
2023/10/12 12:21:17;;;;;;;;;;;20.20;71.20;;;;;;5057370;28;20588;-72
2023/10/12 12:23:47;;;;;;;;;;;20.20;71.20;;;;;;5059568;28;19928;-72
2023/10/12 12:26:16;;;;;;;;;;;20.20;70.90;;;;;;5056437;28;19928;-74
2023/10/12 12:28:49;;;;;;;;;;;20.20;70.20;;;;;;5057511;28;19936;-73
2023/10/12 12:31:16;;;;;;;;;;;20.30;70.30;;;;;;5055577;28;19932;-72
2023/10/12 12:33:44;;;;;;;;;;;20.30;70.40;;;;;;5061024;28;19939;-74
2023/10/12 12:36:21;;;;;;;;;;;20.30;70.20;;;;;;5057571;28;19928;-75
2023/10/12 12:38:57;;;;;;;;;;;20.30;70.10;;;;;;5062789;28;20532;-74
2023/10/12 12:41:24;;;;;;;;;;;20.30;70.20;;;;;;5059615;28;19929;-73
2023/10/12 12:43:51;;;;;;;;;;;20.40;70.30;;;;;;5059219;28;19932;-73
2023/10/12 12:46:18;;;;;;;;;;;20.40;70.40;;;;;;5058143;28;19936;-73
2023/10/12 12:48:46;;;;;;;;;;;20.40;70.40;;;;;;5056228;28;19928;-74
2023/10/12 12:51:15;;;;;;;;;;;20.40;70.20;;;;;;5059339;28;20002;-71
2023/10/12 12:53:42;;;;;;;;;;;20.40;70.10;;;;;;5057473;28;19933;-72
2023/10/12 12:56:11;;;;;;;;;;;20.40;70.30;;;;;;5060217;28;19933;-72
2023/10/12 12:58:44;;;;;;;;;;;20.40;70.30;;;;;;5052407;28;19928;-72
2023/10/12 13:01:11;;;;;;;;;;;20.40;70.40;;;;;;5056817;28;19976;-72
2023/10/12 13:03:37;;;;;;;;;;;20.50;70.60;;;;;;5055675;28;19928;-72
2023/10/12 13:06:07;;;;;;;;;;;20.50;70.60;;;;;;5064590;28;19935;-72
2023/10/12 13:08:35;;;;;;;;;;;20.50;70.80;;;;;;5060698;28;20306;-71
2023/10/12 13:11:04;;;;;;;;;;;20.50;70.80;;;;;;5059675;28;20309;-72
2023/10/12 13:13:33;;;;;;;;;;;20.50;70.80;;;;;;5061235;28;19936;-72
2023/10/12 13:16:00;;;;;;;;;;;20.50;70.80;;;;;;5057419;28;20015;-72
2023/10/12 13:18:29;;;;;;;;;;;20.50;70.90;;;;;;5059802;28;20030;-72
2023/10/12 13:20:57;;;;;;;;;;;20.50;71.00;;;;;;5058114;28;19928;-72
2023/10/12 13:23:23;;;;;;;;;;;20.50;70.90;;;;;;5060172;28;20023;-72
2023/10/12 13:25:51;;;;;;;;;;;20.50;71.00;;;;;;5059882;28;19933;-72
2023/10/12 13:28:18;;;;;;;;;;;20.50;70.90;;;;;;5058458;28;19928;-72
2023/10/12 13:30:45;;;;;;;;;;;20.50;70.90;;;;;;5057705;28;19924;-72
2023/10/12 13:33:12;;;;;;;;;;;20.50;70.80;;;;;;5055716;28;19928;-72
2023/10/12 13:35:42;;;;;;;;;;;20.60;70.80;;;;;;5059902;28;20618;-71
2023/10/12 13:38:10;;;;;;;;;;;20.60;70.80;;;;;;5062128;28;19924;-72
2023/10/12 13:40:37;;;;;;;;;;;20.60;70.80;;;;;;5054677;28;19925;-71
2023/10/12 13:43:14;;;;;;;;;;;20.60;70.80;;;;;;5060678;28;20300;-70
2023/10/12 13:45:42;;;;;;;;;;;20.60;70.70;;;;;;5058016;28;19932;-72
2023/10/12 13:48:10;;;;;;;;;;;20.60;70.60;;;;;;5059537;28;19940;-66
2023/10/12 13:50:37;;;;;;;;;;;20.60;70.60;;;;;;5066629;28;19928;-66
2023/10/12 13:53:05;;;;;;;;;;;20.70;70.60;;;;;;5067450;28;19929;-66
2023/10/12 13:55:32;;;;;;;;;;;20.70;70.60;;;;;;5067850;28;19943;-66
2023/10/12 13:58:00;;;;;;;;;;;20.70;70.60;;;;;;5067097;28;20019;-66
2023/10/12 14:00:33;;;;;;;;;;;20.70;70.50;;;;;;5071256;28;20688;-65
2023/10/12 14:03:10;;;;;;;;;;;20.70;70.60;;;;;;5071647;28;19932;-66
2023/10/12 14:05:40;;;;;;;;;;;20.70;70.60;;;;;;5069631;28;19931;-66
2023/10/12 14:08:08;;;;;;;;;;;20.70;70.60;;;;;;5069439;28;19931;-66
2023/10/12 14:10:38;;;;;;;;;;;20.80;70.60;;;;;;5066854;28;20063;-66
2023/10/12 14:13:06;;;;;;;;;;;20.70;70.60;;;;;;5069494;28;19929;-66
2023/10/12 14:15:36;;;;;;;;;;;20.80;70.70;;;;;;5068306;28;20030;-73
2023/10/12 14:18:03;;;;;;;;;;;20.80;70.60;;;;;;5063192;28;19987;-73
2023/10/12 14:20:32;;;;;;;;;;;20.80;70.70;;;;;;5069095;28;19924;-72
2023/10/12 14:23:05;;;;;;;;;;;20.80;70.80;;;;;;5058891;28;19932;-74
2023/10/12 14:25:35;;;;;;;;;;;20.80;70.80;;;;;;5055618;28;19925;-74
2023/10/12 14:28:05;;;;;;;;;;;20.80;70.90;;;;;;5061649;28;19932;-73
2023/10/12 14:30:31;;;;;;;;;;;20.80;71.00;;;;;;5059275;28;19967;-74
2023/10/12 14:33:02;;;;;;;;;;;20.80;70.90;;;;;;5056674;28;19931;-74
2023/10/12 14:35:29;;;;;;;;;;;20.80;70.80;;;;;;5065637;28;19932;-74
2023/10/12 14:37:56;;;;;;;;;;;20.80;70.70;;;;;;5063270;28;19956;-73
2023/10/12 14:40:29;;;;;;;;;;;20.80;70.70;;;;;;5065892;28;19956;-76
2023/10/12 14:42:56;;;;;;;;;;;20.80;70.80;;;;;;5061375;28;19928;-75
2023/10/12 14:45:24;;;;;;;;;;;20.90;70.80;;;;;;5061425;28;19939;-75
2023/10/12 14:47:51;;;;;;;;;;;20.90;70.90;;;;;;5057692;28;20015;-74
2023/10/12 14:50:20;;;;;;;;;;;20.80;71.60;;;;;;5059879;28;19929;-74
2023/10/12 14:52:52;;;;;;;;;;;20.90;71.00;;;;;;5061794;28;19932;-74
2023/10/12 14:55:20;;;;;;;;;;;20.90;71.00;;;;;;5061702;28;19948;-75
2023/10/12 14:57:49;;;;;;;;;;;20.90;71.10;;;;;;5058915;28;19963;-74
2023/10/12 15:00:22;;;;;;;;;;;20.90;71.00;;;;;;5058662;28;20451;-74
2023/10/12 15:02:49;;;;;;;;;;;20.90;71.00;;;;;;5060622;28;19932;-75
2023/10/12 15:05:16;;;;;;;;;;;20.90;71.00;;;;;;5060014;28;20412;-73
2023/10/12 15:07:43;;;;;;;;;;;20.90;71.10;;;;;;5060710;28;19928;-74